createdAt,value
2022-09-30T00:02:23.479Z,71.6189
2022-09-30T00:07:25.065Z,73.16363
2022-09-30T00:12:26.684Z,72.82582
2022-09-30T00:17:28.274Z,69.5436
2022-09-30T00:22:29.911Z,73.80499
2022-09-30T00:27:31.523Z,74.73239
2022-09-30T00:32:33.146Z,75.24702
2022-09-30T00:37:34.808Z,76.10004
2022-09-30T00:42:36.419Z,73.93479
2022-09-30T00:47:38.024Z,72.28953
2022-09-30T00:52:39.699Z,70.95456
2022-09-30T00:57:41.275Z,74.35459
2022-09-30T01:02:42.871Z,79.54913
2022-09-30T01:07:44.502Z,78.80829
2022-09-30T01:12:46.104Z,73.89188
2022-09-30T01:17:47.758Z,70.4534
2022-09-30T01:22:49.424Z,69.75651
2022-09-30T01:27:51.044Z,75.11401
2022-09-30T01:32:52.766Z,73.13613
2022-09-30T01:37:54.354Z,72.9461
2022-09-30T01:42:55.992Z,72.46292
2022-09-30T01:47:57.548Z,73.98834
2022-09-30T01:52:59.256Z,74.86388
2022-09-30T01:58:00.874Z,74.8934
2022-09-30T02:03:02.536Z,72.91417
2022-09-30T02:08:04.119Z,74.56196
2022-09-30T02:13:05.745Z,77.50483
2022-09-30T02:18:07.345Z,76.1344
2022-09-30T02:23:08.934Z,74.9345
2022-09-30T02:28:10.540Z,73.67678
2022-09-30T02:33:12.141Z,71.79558
2022-09-30T02:38:13.754Z,72.84003
2022-09-30T02:43:15.326Z,75.87838
2022-09-30T02:48:16.999Z,76.2519
2022-09-30T02:53:18.616Z,73.01155
2022-09-30T02:58:20.197Z,72.45335
2022-09-30T03:03:21.861Z,71.696
2022-09-30T03:08:23.478Z,71.18055
2022-09-30T03:13:25.085Z,73.22999
2022-09-30T03:18:26.698Z,72.71023
2022-09-30T03:23:28.322Z,75.11217
2022-09-30T03:28:29.948Z,74.35106
2022-09-30T03:33:31.571Z,69.85756
2022-09-30T03:38:33.185Z,73.99247
2022-09-30T03:43:34.838Z,76.69995
2022-09-30T03:48:36.417Z,73.05424
2022-09-30T03:53:38.037Z,71.32118
2022-09-30T03:58:39.647Z,73.37731
2022-09-30T04:03:41.327Z,73.53891
2022-09-30T04:08:42.943Z,73.25546
2022-09-30T04:13:44.630Z,75.26318
2022-09-30T04:18:46.270Z,76.06957
2022-09-30T04:23:47.862Z,72.9938
2022-09-30T04:28:49.457Z,72.22974
2022-09-30T04:33:51.050Z,73.77794
2022-09-30T04:38:52.657Z,74.18857
2022-09-30T04:43:54.306Z,75.37966
2022-09-30T04:48:55.905Z,74.23942
2022-09-30T04:53:57.446Z,79.19597
2022-09-30T04:58:59.061Z,78.69372
2022-09-30T05:04:00.659Z,77.80776
2022-09-30T05:09:02.263Z,73.53742
2022-09-30T05:14:03.902Z,72.36672
2022-09-30T05:19:05.530Z,76.9434
2022-09-30T05:24:07.096Z,75.96097
2022-09-30T05:29:08.673Z,73.13016
2022-09-30T05:34:10.288Z,72.67005
2022-09-30T05:39:11.923Z,73.87239
2022-09-30T05:44:13.524Z,72.90695
2022-09-30T05:49:15.138Z,73.09257
2022-09-30T05:54:16.778Z,73.75614
2022-09-30T05:59:18.386Z,72.76554
2022-09-30T06:04:20.024Z,74.83828
2022-09-30T06:09:21.868Z,74.57057
2022-09-30T06:14:23.686Z,78.08975
2022-09-30T06:19:25.340Z,75.22428
2022-09-30T06:24:26.946Z,74.78945
2022-09-30T06:29:28.573Z,72.79371
2022-09-30T06:34:30.191Z,74.50508
2022-09-30T06:39:31.787Z,77.40774
2022-09-30T06:44:35.475Z,78.35931
2022-09-30T06:49:47.907Z,76.14943
2022-09-30T06:54:51.526Z,74.09774
2022-09-30T06:59:53.128Z,73.25937
2022-09-30T07:04:54.711Z,74.94767
2022-09-30T07:09:59.559Z,72.38491
2022-09-30T07:15:01.477Z,74.15543
2022-09-30T07:20:03.089Z,74.13383
2022-09-30T07:25:04.737Z,74.49536
2022-09-30T07:30:12.784Z,73.66443
2022-09-30T07:35:20.031Z,73.6508
2022-09-30T07:40:21.631Z,75.08434
2022-09-30T07:45:23.276Z,72.16693
2022-09-30T07:50:24.917Z,71.62573
2022-09-30T07:55:26.535Z,71.3627
2022-09-30T08:00:42.174Z,71.93165
2022-09-30T08:05:44.600Z,73.41299
2022-09-30T08:10:46.304Z,73.98286
2022-09-30T08:15:47.970Z,73.62059
2022-09-30T08:20:49.600Z,73.8925
2022-09-30T08:25:51.200Z,76.81685
2022-09-30T08:30:52.841Z,73.59558
2022-09-30T08:35:54.471Z,71.90132
2022-09-30T08:40:56.074Z,72.77036
2022-09-30T08:45:57.766Z,75.49508
2022-09-30T08:50:59.548Z,75.10613
2022-09-30T08:56:01.197Z,74.50279
2022-09-30T09:01:02.823Z,75.92811
2022-09-30T09:06:04.470Z,77.00338
2022-09-30T09:11:06.045Z,77.94097
2022-09-30T09:16:07.666Z,74.82056
2022-09-30T09:21:09.314Z,75.55783
2022-09-30T09:26:10.933Z,72.81948
2022-09-30T09:31:12.569Z,72.89517
2022-09-30T09:36:14.337Z,72.96244
2022-09-30T09:41:15.923Z,72.58638
2022-09-30T09:46:17.667Z,70.71555
2022-09-30T09:51:19.297Z,71.82829
2022-09-30T09:56:20.990Z,74.06835
2022-09-30T10:01:22.733Z,81.3337
2022-09-30T10:06:24.337Z,76.14984
2022-09-30T10:11:25.922Z,74.77372
2022-09-30T10:16:27.491Z,74.84277
2022-09-30T10:21:29.088Z,73.59848
2022-09-30T10:26:30.724Z,70.91712
2022-09-30T10:31:32.385Z,73.23128
2022-09-30T10:36:34.025Z,75.60343
2022-09-30T10:41:35.640Z,75.18498
2022-09-30T10:46:37.298Z,73.00772
2022-09-30T10:51:38.962Z,75.21092
2022-09-30T10:56:40.594Z,72.14041
2022-09-30T11:01:42.330Z,72.49185
2022-09-30T11:06:43.931Z,74.17045
2022-09-30T11:11:45.537Z,72.14707
2022-09-30T11:16:47.250Z,71.59814
2022-09-30T11:21:48.928Z,76.35223
2022-09-30T11:26:50.588Z,79.46588
2022-09-30T11:31:52.367Z,77.29414
2022-09-30T11:36:54.020Z,77.49531
2022-09-30T11:41:55.620Z,76.66365
2022-09-30T11:46:57.203Z,72.24815
2022-09-30T11:51:58.792Z,73.43956
2022-09-30T11:57:00.385Z,72.71759
2022-09-30T12:02:02.095Z,72.40064
2022-09-30T12:07:03.770Z,73.21263
2022-09-30T12:12:05.382Z,72.78178
2022-09-30T12:17:07.003Z,72.12786
2022-09-30T12:22:08.698Z,70.83872
2022-09-30T12:27:10.502Z,73.28449
2022-09-30T12:32:12.261Z,71.46066
2022-09-30T12:37:14.246Z,73.484
2022-09-30T12:42:15.863Z,72.20966
2022-09-30T12:47:17.463Z,73.80448
2022-09-30T12:52:19.077Z,72.57032
2022-09-30T12:57:20.706Z,70.73377
2022-09-30T13:02:22.333Z,72.49003
2022-09-30T13:07:23.957Z,71.96055
2022-09-30T13:12:25.587Z,71.68563
2022-09-30T13:17:27.180Z,73.33706
2022-09-30T13:22:28.803Z,71.89144
2022-09-30T13:27:30.370Z,71.9347
2022-09-30T13:32:31.972Z,71.88184
2022-09-30T13:37:33.564Z,71.56173
2022-09-30T13:42:35.173Z,72.54217
2022-09-30T13:47:36.773Z,68.74617
2022-09-30T13:52:38.394Z,71.28556
2022-09-30T13:57:40.115Z,73.50131
2022-09-30T14:02:41.698Z,72.20124
2022-09-30T14:07:43.429Z,71.42332
2022-09-30T14:12:45.012Z,72.36499
2022-09-30T14:17:46.651Z,72.49508
2022-09-30T14:22:48.236Z,71.71817
2022-09-30T14:27:49.877Z,69.33519
2022-09-30T14:32:51.546Z,73.27723
2022-09-30T14:37:53.237Z,73.12337
2022-09-30T14:42:54.849Z,73.09876
2022-09-30T14:47:56.488Z,71.711
2022-09-30T14:52:58.115Z,75.65529
2022-09-30T14:57:59.719Z,72.21778
2022-09-30T15:03:01.322Z,72.93418
2022-09-30T15:08:02.957Z,73.21479
2022-09-30T15:13:04.560Z,75.67158
2022-09-30T15:18:06.203Z,72.19863
2022-09-30T15:23:07.852Z,70.90199
2022-09-30T15:28:09.608Z,70.68597
2022-09-30T15:33:11.215Z,72.28268
2022-09-30T15:38:12.805Z,69.39433
2022-09-30T15:43:14.538Z,71.53522
2022-09-30T15:48:16.118Z,70.41793
2022-09-30T15:53:21.230Z,68.27568
2022-09-30T15:58:24.527Z,69.23258
2022-09-30T16:03:26.191Z,68.08957
2022-09-30T16:08:27.802Z,70.42517
2022-09-30T16:13:29.398Z,71.61301
2022-09-30T16:18:34.014Z,74.12691
2022-09-30T16:23:36.746Z,72.30242
2022-09-30T16:28:38.352Z,71.82263
2022-09-30T16:33:40.006Z,70.28165
2022-09-30T16:38:41.618Z,70.65199
2022-09-30T16:43:43.234Z,69.33024
2022-09-30T16:48:44.866Z,73.0213
2022-09-30T16:53:46.461Z,70.76524
2022-09-30T16:58:48.073Z,69.96153
2022-09-30T17:03:49.739Z,72.21136
2022-09-30T17:08:51.324Z,73.5059
2022-09-30T17:13:52.928Z,70.80365
2022-09-30T17:18:54.495Z,67.87442
2022-09-30T17:23:56.079Z,64.3561
2022-09-30T17:29:14.721Z,65.20272
2022-09-30T17:34:30.168Z,62.73829
2022-09-30T17:39:31.833Z,62.84573
2022-09-30T17:44:33.498Z,61.37519
2022-09-30T17:49:35.138Z,58.63882
2022-09-30T17:54:36.736Z,55.88421
2022-09-30T17:59:38.340Z,57.29594
2022-09-30T18:04:39.967Z,57.94313
2022-09-30T18:09:41.574Z,62.0602
2022-09-30T18:14:43.162Z,60.60745
2022-09-30T18:19:44.803Z,62.19222
2022-09-30T18:24:46.484Z,59.46402
2022-09-30T18:29:48.094Z,61.44572
2022-09-30T18:34:49.704Z,58.21684
2022-09-30T18:39:51.308Z,60.71613
2022-09-30T18:44:52.963Z,57.93498
2022-09-30T18:49:54.592Z,57.18573
2022-09-30T18:54:56.220Z,58.4272
2022-09-30T18:59:57.826Z,64.73146
2022-09-30T19:05:00.057Z,63.32546
2022-09-30T19:10:01.858Z,61.43656
2022-09-30T19:15:03.449Z,56.78456
2022-09-30T19:20:05.078Z,57.77193
2022-09-30T19:25:06.693Z,55.34487
2022-09-30T19:30:08.290Z,57.69756
2022-09-30T19:35:09.869Z,56.56617
2022-09-30T19:40:20.849Z,56.13693
2022-09-30T19:45:25.421Z,53.96203
2022-09-30T19:50:27.865Z,51.8207
2022-09-30T19:55:30.834Z,54.03008
2022-09-30T20:00:35.300Z,50.43482
2022-09-30T20:05:36.859Z,52.30354
2022-09-30T20:10:38.452Z,50.06748
2022-09-30T20:15:45.271Z,50.30159
2022-09-30T20:20:47.773Z,49.48933
2022-09-30T20:25:49.363Z,49.36592
2022-09-30T20:30:50.956Z,50.62365
2022-09-30T20:35:52.543Z,48.70434
2022-09-30T20:40:54.083Z,50.11284
2022-09-30T20:45:55.730Z,48.74321
2022-09-30T20:50:57.378Z,48.72488
2022-09-30T20:55:59.006Z,47.33475
2022-09-30T21:01:00.684Z,47.7054
2022-09-30T21:06:02.383Z,49.14995
2022-09-30T21:11:04.006Z,45.49413
2022-09-30T21:16:05.654Z,48.14913
2022-09-30T21:21:07.288Z,47.98629
2022-09-30T21:26:08.938Z,43.63237
2022-09-30T21:31:10.537Z,46.7671
2022-09-30T21:36:12.148Z,49.10311
2022-09-30T21:41:13.787Z,47.52792
2022-09-30T21:46:15.488Z,48.20713
2022-09-30T21:51:17.151Z,47.82383
2022-09-30T21:56:18.808Z,47.24
2022-09-30T22:01:20.444Z,48.05988
2022-09-30T22:06:22.081Z,46.40502
2022-09-30T22:11:23.699Z,47.61876
2022-09-30T22:16:25.351Z,47.13261
2022-09-30T22:21:26.929Z,48.64103
2022-09-30T22:26:28.538Z,45.72778
2022-09-30T22:31:30.644Z,45.93349
2022-09-30T22:36:32.577Z,46.47866
2022-09-30T22:41:34.541Z,45.57283
2022-09-30T22:46:36.454Z,45.97834
2022-09-30T22:51:38.074Z,45.6103
2022-09-30T22:56:39.667Z,45.28354
2022-09-30T23:01:41.420Z,45.42541
2022-09-30T23:06:42.998Z,44.59766
2022-09-30T23:11:44.629Z,44.58821
2022-09-30T23:16:46.318Z,44.40736
2022-09-30T23:21:47.955Z,44.42576
2022-09-30T23:26:49.587Z,44.6298
2022-09-30T23:31:51.254Z,44.04883
2022-09-30T23:36:52.912Z,44.63566
2022-09-30T23:41:54.574Z,42.67634
2022-09-30T23:46:56.266Z,42.26644
2022-09-30T23:51:57.866Z,46.05092
2022-09-30T23:56:59.457Z,46.07029
